• Join FlightAware (Why Join?)
  • Login
  • US Flag 
11:54AM EDT


 

Airport Tracker/Info


-or-


 

Live Flight TrackerFlight Track Log ✈ N511DP ✈ 15-May-2013 ✈ KLFT - KCXO

Flight Track Log - Related Links

Times and Time Zones

All times are in EDT time to prevent confusion due to time zone crossing. See the N511DP flight status page for this flight to view local times or setup timezone preferences in your user account.

Time Position Orientation Groundspeed Altitude Reporting Facility
EDT Latitude Longitude Course Direction KTS MPH feet Rate Location/Type
10:21AM 30.1683 -92.0075 289° West 151 174 3,800  Level Houston Center
10:23AM 30.1594 -92.0578 258° West 161 185 5,600 1,740 Climbing Houston Center
10:24AM 30.1506 -92.1056 258° West 155 178 7,400 1,800 Climbing Houston Center
10:25AM 30.1350 -92.1633 253° West 157 181 9,400 1,740 Climbing Houston Center
10:26AM 29.9515 -92.3228 232° Southwest  Level FlightAware Approximate
10:26AM 30.1219 -92.2131 253° West 161 185 11,100  Level Houston Center
10:27AM 29.9208 -92.3803 289° West  Level FlightAware Approximate
10:27AM 30.1297 -92.2675 279° West 171 197 12,500  Level Houston Center
10:28AM 30.1294 -92.3222 270° West 171 197 14,100 1,560 Climbing Houston Center
10:29AM 30.1311 -92.3783 272° West 174 200 15,800 900 Climbing Houston Center
10:30AM 30.1314 -92.4425 270° West 199 229 16,000 60 Climbing Houston Center
10:31AM 30.1336 -92.5361 272° West 243 280 16,000  Level Houston Center
10:32AM 30.1356 -92.6183 272° West 255 293 16,000  Level Houston Center
10:33AM 30.1369 -92.7008 271° West 258 297 16,000  Level Houston Center
10:34AM 30.1378 -92.7839 271° West 259 298 16,000  Level Houston Center
10:35AM 30.1392 -92.8667 271° West 259 298 16,000  Level Houston Center
10:36AM 30.1397 -92.9506 270° West 260 299 16,000  Level Houston Center
10:37AM 30.1422 -93.0519 272° West 262 302 16,000 -240 Level Houston Center
10:38AM 30.1436 -93.1369 271° West 263 303 15,600 -480 Descending Houston Center
10:39AM 30.1464 -93.2225 272° West 267 307 15,100 -660 Descending Houston Center
10:40AM 30.1494 -93.3089 272° West 268 308 14,300 -780 Descending Houston Center
10:41AM 30.1531 -93.3967 273° West 272 313 13,500 -840 Descending Houston Center
10:42AM 30.1564 -93.4844 273° West 271 312 12,600 -1,020 Descending Houston Center
10:43AM 30.1586 -93.5639 272° West 269 310 11,700 -1,020 Descending Houston Center
10:43AM 30.1592 -93.5717 275° West 270 311 11,600 -900 Descending Houston Center
10:44AM 30.1594 -93.6317 270° West 267 307 11,000 -600 Descending Houston Center
10:44AM 30.1625 -93.6725 275° West 259 298 11,000  Level Houston Center
10:45AM 30.1642 -93.7158 273° West 244 281 11,000  Level Houston Center
10:45AM 30.1725 -93.7478 287° West 238 274 11,000 -420 Level Houston Center
10:46AM 30.1778 -93.7864 279° West 235 270 10,600 -780 Descending Houston Center
10:46AM 30.1833 -93.8244 280° West 240 276 10,200 -600 Descending Houston Center
10:47AM 30.1883 -93.8697 277° West 249 287 10,000 -240 Descending Houston Center
10:47AM 30.1961 -93.9028 285° West 246 283 10,000  Level Houston Center
10:48AM 30.2031 -93.9525 279° West 237 273 10,000  Level Houston Center
10:48AM 30.2089 -93.9775 285° West 238 274 10,000 -240 Level Houston Center
10:49AM 30.2150 -94.0283 278° West 227 261 9,800 -420 Descending Houston Center
10:49AM 30.2208 -94.0494 288° West 231 266 9,600 -720 Descending Houston Center
10:50AM 30.2267 -94.1017 277° West 241 277 9,100 -720 Descending Houston Center
10:50AM 30.2311 -94.1286 281° West 245 282 8,900 -720 Descending Houston Center
10:51AM 30.2392 -94.1847 279° West 253 291 8,400 -780 Descending Houston Center
10:51AM 30.2478 -94.2242 284° West 252 290 8,100 -420 Descending Houston Center
10:52AM 30.2539 -94.2675 279° West 251 289 8,000 -120 Descending Houston Center
10:53AM 30.2603 -94.3006 283° West 246 283 8,000  Level Houston Center
10:53AM 30.2647 -94.3339 279° West 238 274 8,000  Level Houston Center
10:54AM 30.2719 -94.3736 282° West 235 270 8,000 -240 Level Houston Center
10:54AM 30.2742 -94.4103 274° West 230 265 7,800 -540 Descending Houston Center
10:55AM 30.2814 -94.4497 282° West 237 273 7,500 -540 Descending Houston Center
10:55AM 30.2858 -94.4861 278° West 243 280 7,300 -540 Descending Houston Center
10:56AM 30.2953 -94.5333 283° West 242 278 7,000 -540 Descending Houston Center
10:56AM 30.2981 -94.5669 275° West 240 276 6,800 -540 Descending Houston Center
10:57AM 30.3144 -94.6069 295° West 241 277 6,500 -540 Descending Houston Center
10:57AM 30.3283 -94.6406 296° West 248 285 6,300 -420 Descending Houston Center
10:58AM 30.3439 -94.6778 296° West 244 281 6,100 -540 Descending Houston Center
10:58AM 30.3561 -94.7119 293° West 246 283 5,800 -780 Descending Houston Center
10:59AM 30.3753 -94.7503 300° West 250 288 5,300 -900 Descending Houston Center
10:59AM 30.3864 -94.7858 290° West 249 287 4,900 -1,080 Descending Houston Center
11:00AM 30.4094 -94.8386 297° West 252 290 4,200 -840 Descending Houston Center
11:00AM 30.4169 -94.8642 289° West 251 289 4,100 -120 Descending Houston Center
11:01AM 30.4386 -94.9122 298° West 243 280 4,100  Level Houston Center
11:01AM 30.4464 -94.9308 296° West 237 273 4,100  Level Houston Center
11:02AM 30.4672 -94.9775 297° West 230 265 4,100  Level Houston Center
11:02AM 30.4733 -94.9953 292° West 221 254 4,100  Level Houston Center
11:03AM 30.4942 -95.0428 297° West 225 259 4,100  Level Houston Center
11:04AM 30.5203 -95.1092 295° West 225 259 4,100  Level Houston Center
11:05AM 30.5344 -95.2011 280° West 219 252 4,100  Level Houston Center
11:06AM 30.5442 -95.2481 284° West 221 254 4,100  Level Houston Center
11:07AM 30.5603 -95.3436 281° West 223 257 4,100  Level Houston Center
11:08AM 30.5731 -95.4019 284° West 222 255 4,100 -60 Level Houston Center
11:09AM 30.5850 -95.4667 282° West 224 258 4,000 -360 Descending Houston Center
11:10AM 30.5517 -95.5225 235° Southwest 214 246 3,400 -540 Descending Houston Center
11:11AM 30.4969 -95.5269 184° South 183 211 3,000 -360 Descending Houston Center
11:12AM 30.4619 -95.4961 143° Southeast 162 186 2,700 -600 Descending Houston Center
11:13AM 30.4314 -95.4756 150° Southeast 119 137 1,900 -660 Descending Houston Center
11:14AM 30.4044 -95.4544 146° Southeast 113 130 1,400 -600 Descending Houston Center
11:15AM 30.3728 -95.4294 146° Southeast 125 144 700 -720 Descending Houston Center